sensor_id;sensor_type;location;lat;lon;timestamp;pressure;altitude;pressure_sealevel;temperature;humidity
60583;BME280;46415;47.536;19.066;2023-11-19T00:01:52;-18283.47;;;1.98;100.00
60583;BME280;46415;47.536;19.066;2023-11-19T00:04:55;-18281.94;;;1.92;100.00
60583;BME280;46415;47.536;19.066;2023-11-19T00:08:00;-18280.84;;;1.88;100.00
60583;BME280;46415;47.536;19.066;2023-11-19T00:11:04;-18280.72;;;1.88;100.00
60583;BME280;46415;47.536;19.066;2023-11-19T00:14:07;-18280.56;;;1.87;100.00
60583;BME280;46415;47.536;19.066;2023-11-19T00:17:11;-18280.56;;;1.87;100.00
60583;BME280;46415;47.536;19.066;2023-11-19T00:20:14;-18280.84;;;1.88;100.00
60583;BME280;46415;47.536;19.066;2023-11-19T00:23:17;-18280.16;;;1.86;100.00
60583;BME280;46415;47.536;19.066;2023-11-19T00:26:19;-18282.34;;;1.94;100.00
60583;BME280;46415;47.536;19.066;2023-11-19T00:29:24;-18282.78;;;1.95;100.00
60583;BME280;46415;47.536;19.066;2023-11-19T00:32:27;-18282.63;;;1.95;100.00
60583;BME280;46415;47.536;19.066;2023-11-19T00:35:30;-18283.47;;;1.98;100.00
60583;BME280;46415;47.536;19.066;2023-11-19T00:38:33;-18283.75;;;1.99;100.00
60583;BME280;46415;47.536;19.066;2023-11-19T00:41:36;-18284.44;;;2.01;100.00
60583;BME280;46415;47.536;19.066;2023-11-19T00:44:39;-18284.69;;;2.02;100.00
60583;BME280;46415;47.536;19.066;2023-11-19T00:47:52;-18284.28;;;2.01;100.00
60583;BME280;46415;47.536;19.066;2023-11-19T00:50:56;-18284.16;;;2.00;100.00
60583;BME280;46415;47.536;19.066;2023-11-19T00:53:59;-18282.78;;;1.95;100.00
60583;BME280;46415;47.536;19.066;2023-11-19T00:57:01;-18281.66;;;1.91;100.00
60583;BME280;46415;47.536;19.066;2023-11-19T01:00:05;-18282.09;;;1.93;100.00
60583;BME280;46415;47.536;19.066;2023-11-19T01:03:26;-18281.66;;;1.91;100.00
60583;BME280;46415;47.536;19.066;2023-11-19T01:06:30;-18280.16;;;1.86;100.00
60583;BME280;46415;47.536;19.066;2023-11-19T01:09:33;-18277.13;;;1.75;100.00
60583;BME280;46415;47.536;19.066;2023-11-19T01:12:39;-18274.50;;;1.65;100.00
60583;BME280;46415;47.536;19.066;2023-11-19T01:15:41;-18273.69;;;1.62;100.00
60583;BME280;46415;47.536;19.066;2023-11-19T01:18:44;-18273.25;;;1.60;100.00
60583;BME280;46415;47.536;19.066;2023-11-19T01:21:49;-18273.13;;;1.60;100.00
60583;BME280;46415;47.536;19.066;2023-11-19T01:24:51;-18273.25;;;1.60;100.00
60583;BME280;46415;47.536;19.066;2023-11-19T01:27:54;-18271.19;;;1.53;100.00
60583;BME280;46415;47.536;19.066;2023-11-19T01:31:00;-18271.19;;;1.53;100.00
60583;BME280;46415;47.536;19.066;2023-11-19T01:34:03;-18270.66;;;1.51;100.00
60583;BME280;46415;47.536;19.066;2023-11-19T01:37:06;-18269.81;;;1.48;100.00
60583;BME280;46415;47.536;19.066;2023-11-19T01:40:11;-18270.50;;;1.50;100.00
60583;BME280;46415;47.536;19.066;2023-11-19T01:43:30;-18269.25;;;1.46;100.00
60583;BME280;46415;47.536;19.066;2023-11-19T01:46:34;-18268.16;;;1.42;100.00
60583;BME280;46415;47.536;19.066;2023-11-19T01:49:38;-18268.44;;;1.43;100.00
60583;BME280;46415;47.536;19.066;2023-11-19T01:52:40;-18267.47;;;1.39;100.00
60583;BME280;46415;47.536;19.066;2023-11-19T01:55:43;-18266.66;;;1.36;100.00
60583;BME280;46415;47.536;19.066;2023-11-19T01:58:47;-18267.19;;;1.38;100.00
60583;BME280;46415;47.536;19.066;2023-11-19T02:01:51;-18267.63;;;1.40;100.00
60583;BME280;46415;47.536;19.066;2023-11-19T02:05:05;-18267.06;;;1.38;100.00
60583;BME280;46415;47.536;19.066;2023-11-19T02:08:08;-18266.38;;;1.35;100.00
60583;BME280;46415;47.536;19.066;2023-11-19T02:11:14;-18264.03;;;1.27;100.00
60583;BME280;46415;47.536;19.066;2023-11-19T02:14:19;-18262.94;;;1.22;100.00
60583;BME280;46415;47.536;19.066;2023-11-19T02:17:26;-18263.63;;;1.25;100.00
60583;BME280;46415;47.536;19.066;2023-11-19T02:20:29;-18264.59;;;1.29;100.00
60583;BME280;46415;47.536;19.066;2023-11-19T02:23:32;-18263.19;;;1.23;100.00
60583;BME280;46415;47.536;19.066;2023-11-19T02:26:52;-18261.56;;;1.17;100.00
60583;BME280;46415;47.536;19.066;2023-11-19T02:29:59;-18259.47;;;1.10;100.00
60583;BME280;46415;47.536;19.066;2023-11-19T02:33:02;-18259.06;;;1.08;100.00
60583;BME280;46415;47.536;19.066;2023-11-19T02:36:08;-18257.28;;;1.02;100.00
60583;BME280;46415;47.536;19.066;2023-11-19T02:39:11;-18254.66;;;0.92;100.00
60583;BME280;46415;47.536;19.066;2023-11-19T02:42:15;-18252.19;;;0.83;100.00
60583;BME280;46415;47.536;19.066;2023-11-19T02:45:18;-18251.34;;;0.80;100.00
60583;BME280;46415;47.536;19.066;2023-11-19T02:48:21;-18252.19;;;0.83;100.00
60583;BME280;46415;47.536;19.066;2023-11-19T02:51:23;-18253.81;;;0.89;100.00
60583;BME280;46415;47.536;19.066;2023-11-19T02:54:26;-18254.66;;;0.92;100.00
60583;BME280;46415;47.536;19.066;2023-11-19T02:57:32;-18254.78;;;0.93;100.00
60583;BME280;46415;47.536;19.066;2023-11-19T03:00:39;-18254.50;;;0.92;100.00
60583;BME280;46415;47.536;19.066;2023-11-19T03:03:50;-18254.66;;;0.92;100.00
60583;BME280;46415;47.536;19.066;2023-11-19T03:06:57;-18257.13;;;1.01;100.00
60583;BME280;46415;47.536;19.066;2023-11-19T03:10:00;-18257.41;;;1.02;100.00
60583;BME280;46415;47.536;19.066;2023-11-19T03:13:03;-18256.88;;;1.00;100.00
60583;BME280;46415;47.536;19.066;2023-11-19T03:16:06;-18257.41;;;1.02;100.00
60583;BME280;46415;47.536;19.066;2023-11-19T03:19:09;-18258.50;;;1.06;100.00
60583;BME280;46415;47.536;19.066;2023-11-19T03:22:11;-18256.72;;;1.00;100.00
60583;BME280;46415;47.536;19.066;2023-11-19T03:25:14;-18256.31;;;0.98;100.00
60583;BME280;46415;47.536;19.066;2023-11-19T03:28:17;-18256.59;;;0.99;100.00
60583;BME280;46415;47.536;19.066;2023-11-19T03:31:20;-18256.31;;;0.98;100.00
60583;BME280;46415;47.536;19.066;2023-11-19T03:34:23;-18256.03;;;0.97;100.00
60583;BME280;46415;47.536;19.066;2023-11-19T03:37:26;-18258.38;;;1.06;100.00
60583;BME280;46415;47.536;19.066;2023-11-19T03:40:28;-18259.91;;;1.11;100.00
60583;BME280;46415;47.536;19.066;2023-11-19T03:43:32;-18259.91;;;1.11;100.00
60583;BME280;46415;47.536;19.066;2023-11-19T03:46:36;-18260.84;;;1.15;100.00
60583;BME280;46415;47.536;19.066;2023-11-19T03:49:39;-18263.47;;;1.25;100.00
60583;BME280;46415;47.536;19.066;2023-11-19T03:52:41;-18266.50;;;1.36;100.00
60583;BME280;46415;47.536;19.066;2023-11-19T03:55:46;-18269.81;;;1.48;100.00
60583;BME280;46415;47.536;19.066;2023-11-19T03:58:49;-18273.53;;;1.61;100.00
60583;BME280;46415;47.536;19.066;2023-11-19T04:01:52;-18275.88;;;1.70;100.00
60583;BME280;46415;47.536;19.066;2023-11-19T04:04:56;-18277.25;;;1.75;100.00
60583;BME280;46415;47.536;19.066;2023-11-19T04:07:59;-18277.94;;;1.78;100.00
60583;BME280;46415;47.536;19.066;2023-11-19T04:11:03;-18279.47;;;1.83;100.00
60583;BME280;46415;47.536;19.066;2023-11-19T04:14:06;-18279.59;;;1.84;100.00
60583;BME280;46415;47.536;19.066;2023-11-19T04:17:09;-18279.59;;;1.84;100.00
60583;BME280;46415;47.536;19.066;2023-11-19T04:20:11;-18278.91;;;1.81;100.00
60583;BME280;46415;47.536;19.066;2023-11-19T04:23:17;-18278.22;;;1.79;100.00
60583;BME280;46415;47.536;19.066;2023-11-19T04:26:19;-18277.81;;;1.77;100.00
60583;BME280;46415;47.536;19.066;2023-11-19T04:29:22;-18277.25;;;1.75;100.00
60583;BME280;46415;47.536;19.066;2023-11-19T04:32:26;-18276.44;;;1.72;100.00
60583;BME280;46415;47.536;19.066;2023-11-19T04:35:29;-18276.16;;;1.71;100.00
60583;BME280;46415;47.536;19.066;2023-11-19T04:38:32;-18274.38;;;1.64;100.00
60583;BME280;46415;47.536;19.066;2023-11-19T04:41:35;-18273.81;;;1.62;100.00
60583;BME280;46415;47.536;19.066;2023-11-19T04:44:38;-18273.69;;;1.62;100.00
60583;BME280;46415;47.536;19.066;2023-11-19T04:47:41;-18274.09;;;1.63;100.00
60583;BME280;46415;47.536;19.066;2023-11-19T04:50:44;-18274.50;;;1.65;100.00
60583;BME280;46415;47.536;19.066;2023-11-19T04:53:47;-18277.53;;;1.76;100.00
60583;BME280;46415;47.536;19.066;2023-11-19T04:56:49;-18273.94;;;1.63;100.00
60583;BME280;46415;47.536;19.066;2023-11-19T04:59:52;-18272.44;;;1.57;100.00
60583;BME280;46415;47.536;19.066;2023-11-19T05:02:54;-18270.38;;;1.50;100.00
60583;BME280;46415;47.536;19.066;2023-11-19T05:05:58;-18268.56;;;1.43;100.00
60583;BME280;46415;47.536;19.066;2023-11-19T05:09:00;-18269.97;;;1.48;100.00
60583;BME280;46415;47.536;19.066;2023-11-19T05:12:12;-18270.09;;;1.49;100.00
60583;BME280;46415;47.536;19.066;2023-11-19T05:15:14;-18269.53;;;1.47;100.00
60583;BME280;46415;47.536;19.066;2023-11-19T05:18:17;-18269.53;;;1.47;100.00
60583;BME280;46415;47.536;19.066;2023-11-19T05:21:20;-18269.41;;;1.46;100.00
60583;BME280;46415;47.536;19.066;2023-11-19T05:24:23;-18267.88;;;1.41;100.00
60583;BME280;46415;47.536;19.066;2023-11-19T05:27:26;-18267.19;;;1.38;100.00
60583;BME280;46415;47.536;19.066;2023-11-19T05:30:29;-18268.44;;;1.43;100.00
60583;BME280;46415;47.536;19.066;2023-11-19T05:33:32;-18268.03;;;1.41;100.00
60583;BME280;46415;47.536;19.066;2023-11-19T05:36:35;-18267.88;;;1.41;100.00
60583;BME280;46415;47.536;19.066;2023-11-19T05:39:37;-18267.88;;;1.41;100.00
60583;BME280;46415;47.536;19.066;2023-11-19T05:42:40;-18267.75;;;1.40;100.00
60583;BME280;46415;47.536;19.066;2023-11-19T05:45:43;-18266.78;;;1.37;100.00
60583;BME280;46415;47.536;19.066;2023-11-19T05:48:46;-18265.97;;;1.34;100.00
60583;BME280;46415;47.536;19.066;2023-11-19T05:51:49;-18267.63;;;1.40;100.00
60583;BME280;46415;47.536;19.066;2023-11-19T05:54:52;-18265.00;;;1.30;100.00
60583;BME280;46415;47.536;19.066;2023-11-19T05:57:55;-18264.84;;;1.30;100.00
60583;BME280;46415;47.536;19.066;2023-11-19T06:00:58;-18261.69;;;1.18;100.00
60583;BME280;46415;47.536;19.066;2023-11-19T06:04:03;-18261.41;;;1.17;100.00
60583;BME280;46415;47.536;19.066;2023-11-19T06:07:07;-18262.22;;;1.20;100.00
60583;BME280;46415;47.536;19.066;2023-11-19T06:10:10;-18265.00;;;1.30;100.00
60583;BME280;46415;47.536;19.066;2023-11-19T06:13:13;-18267.06;;;1.38;100.00
60583;BME280;46415;47.536;19.066;2023-11-19T06:16:18;-18266.78;;;1.37;100.00
60583;BME280;46415;47.536;19.066;2023-11-19T06:19:21;-18267.63;;;1.40;100.00
60583;BME280;46415;47.536;19.066;2023-11-19T06:22:24;-18268.31;;;1.42;100.00
60583;BME280;46415;47.536;19.066;2023-11-19T06:25:26;-18270.09;;;1.49;100.00
60583;BME280;46415;47.536;19.066;2023-11-19T06:28:30;-18271.19;;;1.53;100.00
60583;BME280;46415;47.536;19.066;2023-11-19T06:31:33;-18272.31;;;1.57;100.00
60583;BME280;46415;47.536;19.066;2023-11-19T06:34:36;-18272.31;;;1.57;100.00
60583;BME280;46415;47.536;19.066;2023-11-19T06:37:39;-18274.78;;;1.66;100.00
60583;BME280;46415;47.536;19.066;2023-11-19T06:40:44;-18277.25;;;1.75;100.00
60583;BME280;46415;47.536;19.066;2023-11-19T06:43:50;-18278.38;;;1.79;100.00
60583;BME280;46415;47.536;19.066;2023-11-19T06:46:54;-18280.84;;;1.88;100.00
60583;BME280;46415;47.536;19.066;2023-11-19T06:49:57;-18283.59;;;1.98;100.00
60583;BME280;46415;47.536;19.066;2023-11-19T06:53:00;-18285.53;;;2.05;100.00
60583;BME280;46415;47.536;19.066;2023-11-19T06:56:03;-18289.53;;;2.20;100.00
60583;BME280;46415;47.536;19.066;2023-11-19T06:59:11;-18295.44;;;2.42;100.00
60583;BME280;46415;47.536;19.066;2023-11-19T07:02:13;-18302.59;;;2.68;100.00
60583;BME280;46415;47.536;19.066;2023-11-19T07:05:17;-18307.16;;;2.85;100.00
60583;BME280;46415;47.536;19.066;2023-11-19T07:08:20;-18309.91;;;2.95;100.00
60583;BME280;46415;47.536;19.066;2023-11-19T07:11:23;-18312.81;;;3.06;100.00
60583;BME280;46415;47.536;19.066;2023-11-19T07:14:25;-18313.91;;;3.10;100.00
60583;BME280;46415;47.536;19.066;2023-11-19T07:17:31;-18318.03;;;3.25;100.00
60583;BME280;46415;47.536;19.066;2023-11-19T07:20:34;-18321.88;;;3.39;100.00
60583;BME280;46415;47.536;19.066;2023-11-19T07:23:37;-18320.25;;;3.33;100.00
60583;BME280;46415;47.536;19.066;2023-11-19T07:26:41;-18319.97;;;3.32;100.00
60583;BME280;46415;47.536;19.066;2023-11-19T07:29:45;-18323.00;;;3.43;100.00
60583;BME280;46415;47.536;19.066;2023-11-19T07:32:48;-18324.09;;;3.47;100.00
60583;BME280;46415;47.536;19.066;2023-11-19T07:35:51;-18327.25;;;3.59;100.00
60583;BME280;46415;47.536;19.066;2023-11-19T07:38:54;-18328.78;;;3.64;100.00
60583;BME280;46415;47.536;19.066;2023-11-19T07:41:59;-18329.03;;;3.65;100.00
60583;BME280;46415;47.536;19.066;2023-11-19T07:45:02;-18330.41;;;3.70;100.00
60583;BME280;46415;47.536;19.066;2023-11-19T07:48:05;-18329.59;;;3.67;100.00
60583;BME280;46415;47.536;19.066;2023-11-19T07:51:10;-18330.69;;;3.72;100.00
60583;BME280;46415;47.536;19.066;2023-11-19T07:54:13;-18333.31;;;3.81;100.00
60583;BME280;46415;47.536;19.066;2023-11-19T07:57:16;-18331.38;;;3.74;100.00
60583;BME280;46415;47.536;19.066;2023-11-19T08:00:19;-18326.00;;;3.54;100.00
60583;BME280;46415;47.536;19.066;2023-11-19T08:03:22;-18328.78;;;3.64;100.00
60583;BME280;46415;47.536;19.066;2023-11-19T08:06:25;-18329.72;;;3.68;100.00
60583;BME280;46415;47.536;19.066;2023-11-19T08:09:28;-18334.13;;;3.84;100.00
60583;BME280;46415;47.536;19.066;2023-11-19T08:12:31;-18332.22;;;3.77;100.00
60583;BME280;46415;47.536;19.066;2023-11-19T08:15:34;-18330.97;;;3.73;100.00
60583;BME280;46415;47.536;19.066;2023-11-19T08:18:37;-18328.78;;;3.64;100.00
60583;BME280;46415;47.536;19.066;2023-11-19T08:21:40;-18332.75;;;3.79;100.00
60583;BME280;46415;47.536;19.066;2023-11-19T08:24:42;-18333.03;;;3.80;100.00
60583;BME280;46415;47.536;19.066;2023-11-19T08:27:45;-18332.34;;;3.78;100.00
60583;BME280;46415;47.536;19.066;2023-11-19T08:30:48;-18331.53;;;3.75;100.00
60583;BME280;46415;47.536;19.066;2023-11-19T08:33:51;-18333.84;;;3.83;100.00
60583;BME280;46415;47.536;19.066;2023-11-19T08:36:53;-18336.19;;;3.92;100.00
60583;BME280;46415;47.536;19.066;2023-11-19T08:39:56;-18337.44;;;3.96;100.00
60583;BME280;46415;47.536;19.066;2023-11-19T08:42:59;-18340.06;;;4.06;100.00
60583;BME280;46415;47.536;19.066;2023-11-19T08:46:03;-18345.00;;;4.24;100.00
60583;BME280;46415;47.536;19.066;2023-11-19T08:49:06;-18344.31;;;4.22;100.00
60583;BME280;46415;47.536;19.066;2023-11-19T08:52:11;-18348.31;;;4.36;100.00
60583;BME280;46415;47.536;19.066;2023-11-19T08:55:13;-18353.81;;;4.57;100.00
60583;BME280;46415;47.536;19.066;2023-11-19T08:58:16;-18353.53;;;4.56;100.00
60583;BME280;46415;47.536;19.066;2023-11-19T09:01:19;-18352.72;;;4.53;100.00
60583;BME280;46415;47.536;19.066;2023-11-19T09:04:22;-18355.19;;;4.62;100.00
60583;BME280;46415;47.536;19.066;2023-11-19T09:07:27;-18354.91;;;4.61;100.00
60583;BME280;46415;47.536;19.066;2023-11-19T09:10:31;-18352.31;;;4.51;100.00
60583;BME280;46415;47.536;19.066;2023-11-19T09:13:34;-18346.94;;;4.31;100.00
60583;BME280;46415;47.536;19.066;2023-11-19T09:16:37;-18346.09;;;4.28;100.00
60583;BME280;46415;47.536;19.066;2023-11-19T09:19:40;-18347.06;;;4.32;100.00
60583;BME280;46415;47.536;19.066;2023-11-19T09:22:45;-18348.16;;;4.36;100.00
60583;BME280;46415;47.536;19.066;2023-11-19T09:25:48;-18349.00;;;4.39;100.00
60583;BME280;46415;47.536;19.066;2023-11-19T09:28:51;-18349.00;;;4.39;100.00
60583;BME280;46415;47.536;19.066;2023-11-19T09:31:53;-18350.78;;;4.45;100.00
60583;BME280;46415;47.536;19.066;2023-11-19T09:34:56;-18348.72;;;4.38;100.00
60583;BME280;46415;47.536;19.066;2023-11-19T09:37:59;-18353.25;;;4.55;100.00
60583;BME280;46415;47.536;19.066;2023-11-19T09:41:04;-18352.44;;;4.51;100.00
60583;BME280;46415;47.536;19.066;2023-11-19T09:44:10;-18352.44;;;4.51;100.00
60583;BME280;46415;47.536;19.066;2023-11-19T09:47:14;-18354.22;;;4.58;100.00
60583;BME280;46415;47.536;19.066;2023-11-19T09:50:19;-18354.63;;;4.60;100.00
60583;BME280;46415;47.536;19.066;2023-11-19T09:53:22;-18353.66;;;4.56;100.00
60583;BME280;46415;47.536;19.066;2023-11-19T09:56:25;-18354.38;;;4.59;100.00
60583;BME280;46415;47.536;19.066;2023-11-19T09:59:29;-18355.75;;;4.64;100.00
60583;BME280;46415;47.536;19.066;2023-11-19T10:02:31;-18359.72;;;4.78;100.00
60583;BME280;46415;47.536;19.066;2023-11-19T10:05:36;-18359.44;;;4.77;100.00
60583;BME280;46415;47.536;19.066;2023-11-19T10:08:41;-18359.31;;;4.77;100.00
60583;BME280;46415;47.536;19.066;2023-11-19T10:11:44;-18357.38;;;4.70;100.00
60583;BME280;46415;47.536;19.066;2023-11-19T10:14:46;-18357.66;;;4.71;100.00
60583;BME280;46415;47.536;19.066;2023-11-19T10:17:50;-18363.31;;;4.91;100.00
60583;BME280;46415;47.536;19.066;2023-11-19T10:20:53;-18366.47;;;5.03;100.00
60583;BME280;46415;47.536;19.066;2023-11-19T10:23:57;-18365.38;;;4.99;100.00
60583;BME280;46415;47.536;19.066;2023-11-19T10:27:02;-18369.75;;;5.15;100.00
60583;BME280;46415;47.536;19.066;2023-11-19T10:30:06;-18368.13;;;5.09;100.00
60583;BME280;46415;47.536;19.066;2023-11-19T10:33:13;-18372.22;;;5.24;100.00
60583;BME280;46415;47.536;19.066;2023-11-19T10:36:26;-18378.00;;;5.46;100.00
60583;BME280;46415;47.536;19.066;2023-11-19T10:39:52;-18379.66;;;5.52;100.00
60583;BME280;46415;47.536;19.066;2023-11-19T10:43:03;-18382.69;;;5.63;100.00
60583;BME280;46415;47.536;19.066;2023-11-19T10:46:12;-18387.34;;;5.80;100.00
60583;BME280;46415;47.536;19.066;2023-11-19T10:49:16;-18387.09;;;5.79;100.00
60583;BME280;46415;47.536;19.066;2023-11-19T10:52:18;-18385.56;;;5.73;100.00
60583;BME280;46415;47.536;19.066;2023-11-19T10:55:26;-18379.53;;;5.51;100.00
60583;BME280;46415;47.536;19.066;2023-11-19T10:58:29;-18382.00;;;5.60;100.00
60583;BME280;46415;47.536;19.066;2023-11-19T11:01:38;-18381.88;;;5.60;100.00
60583;BME280;46415;47.536;19.066;2023-11-19T11:04:43;-18381.31;;;5.58;100.00
60583;BME280;46415;47.536;19.066;2023-11-19T11:07:47;-18374.72;;;5.33;100.00
60583;BME280;46415;47.536;19.066;2023-11-19T11:10:54;-18377.19;;;5.43;100.00
60583;BME280;46415;47.536;19.066;2023-11-19T11:13:59;-18382.41;;;5.62;100.00
60583;BME280;46415;47.536;19.066;2023-11-19T11:17:04;-18385.56;;;5.73;100.00
60583;BME280;46415;47.536;19.066;2023-11-19T11:20:10;-18385.84;;;5.74;100.00
60583;BME280;46415;47.536;19.066;2023-11-19T11:36:39;-18385.84;;;5.74;100.00
60583;BME280;46415;47.536;19.066;2023-11-19T11:39:48;-18384.59;;;5.70;100.00
60583;BME280;46415;47.536;19.066;2023-11-19T11:42:52;-18383.38;;;5.65;100.00
60583;BME280;46415;47.536;19.066;2023-11-19T11:45:55;-18382.53;;;5.62;100.00
60583;BME280;46415;47.536;19.066;2023-11-19T11:49:02;-18385.16;;;5.72;100.00
60583;BME280;46415;47.536;19.066;2023-11-19T11:52:05;-18385.16;;;5.72;100.00
60583;BME280;46415;47.536;19.066;2023-11-19T11:55:08;-18387.09;;;5.79;100.00
60583;BME280;46415;47.536;19.066;2023-11-19T11:58:11;-18390.66;;;5.92;100.00
60583;BME280;46415;47.536;19.066;2023-11-19T12:01:14;-18396.16;;;6.12;100.00
60583;BME280;46415;47.536;19.066;2023-11-19T12:04:28;-18400.41;;;6.28;100.00
60583;BME280;46415;47.536;19.066;2023-11-19T12:07:32;-18391.75;;;5.96;100.00
60583;BME280;46415;47.536;19.066;2023-11-19T12:10:38;-18395.88;;;6.11;100.00
60583;BME280;46415;47.536;19.066;2023-11-19T12:13:55;-18392.84;;;6.00;100.00
60583;BME280;46415;47.536;19.066;2023-11-19T12:17:35;-18391.22;;;5.94;100.00
60583;BME280;46415;47.536;19.066;2023-11-19T12:20:36;-18397.53;;;6.18;100.00
60583;BME280;46415;47.536;19.066;2023-11-19T12:23:46;-18404.81;;;6.44;100.00
60583;BME280;46415;47.536;19.066;2023-11-19T12:26:50;-18408.53;;;6.58;100.00
60583;BME280;46415;47.536;19.066;2023-11-19T12:29:56;-18403.28;;;6.39;100.00
60583;BME280;46415;47.536;19.066;2023-11-19T12:32:59;-18396.84;;;6.15;100.00
60583;BME280;46415;47.536;19.066;2023-11-19T12:36:02;-18394.38;;;6.06;100.00
60583;BME280;46415;47.536;19.066;2023-11-19T12:39:07;-18391.91;;;5.97;100.00
60583;BME280;46415;47.536;19.066;2023-11-19T12:42:13;-18389.00;;;5.86;100.00
60583;BME280;46415;47.536;19.066;2023-11-19T12:45:17;-18387.63;;;5.81;100.00
60583;BME280;46415;47.536;19.066;2023-11-19T12:48:22;-18387.50;;;5.81;100.00
60583;BME280;46415;47.536;19.066;2023-11-19T12:51:30;-18385.72;;;5.74;100.00
60583;BME280;46415;47.536;19.066;2023-11-19T12:54:34;-18386.66;;;5.78;100.00
60583;BME280;46415;47.536;19.066;2023-11-19T12:57:41;-18384.88;;;5.71;100.00
60583;BME280;46415;47.536;19.066;2023-11-19T13:00:44;-18380.63;;;5.55;100.00
60583;BME280;46415;47.536;19.066;2023-11-19T13:03:47;-18378.16;;;5.46;100.00
60583;BME280;46415;47.536;19.066;2023-11-19T13:06:51;-18380.63;;;5.55;100.00
60583;BME280;46415;47.536;19.066;2023-11-19T13:10:01;-18382.69;;;5.63;100.00
60583;BME280;46415;47.536;19.066;2023-11-19T13:16:07;-18384.06;;;5.68;100.00
60583;BME280;46415;47.536;19.066;2023-11-19T13:19:12;-18383.78;;;5.67;100.00
60583;BME280;46415;47.536;19.066;2023-11-19T13:30:05;-18376.38;;;5.40;100.00
60583;BME280;46415;47.536;19.066;2023-11-19T13:33:09;-18376.91;;;5.42;100.00
60583;BME280;46415;47.536;19.066;2023-11-19T13:36:15;-18377.19;;;5.43;100.00
60583;BME280;46415;47.536;19.066;2023-11-19T13:39:19;-18373.47;;;5.29;100.00
60583;BME280;46415;47.536;19.066;2023-11-19T13:42:25;-18375.81;;;5.38;100.00
60583;BME280;46415;47.536;19.066;2023-11-19T13:45:28;-18375.66;;;5.37;100.00
60583;BME280;46415;47.536;19.066;2023-11-19T13:48:30;-18376.50;;;5.40;100.00
60583;BME280;46415;47.536;19.066;2023-11-19T13:51:33;-18375.53;;;5.37;100.00
60583;BME280;46415;47.536;19.066;2023-11-19T13:54:36;-18376.91;;;5.42;100.00
60583;BME280;46415;47.536;19.066;2023-11-19T13:57:40;-18375.00;;;5.34;100.00
60583;BME280;46415;47.536;19.066;2023-11-19T14:00:43;-18374.72;;;5.33;100.00
60583;BME280;46415;47.536;19.066;2023-11-19T14:03:45;-18376.91;;;5.42;100.00
60583;BME280;46415;47.536;19.066;2023-11-19T14:06:49;-18378.56;;;5.48;100.00
60583;BME280;46415;47.536;19.066;2023-11-19T14:09:52;-18381.59;;;5.59;100.00
60583;BME280;46415;47.536;19.066;2023-11-19T14:12:54;-18380.75;;;5.56;100.00
60583;BME280;46415;47.536;19.066;2023-11-19T14:15:57;-18379.53;;;5.51;100.00
60583;BME280;46415;47.536;19.066;2023-11-19T14:19:01;-18380.75;;;5.56;100.00
60583;BME280;46415;47.536;19.066;2023-11-19T14:22:04;-18379.94;;;5.53;100.00
60583;BME280;46415;47.536;19.066;2023-11-19T14:25:07;-18378.00;;;5.46;100.00
60583;BME280;46415;47.536;19.066;2023-11-19T14:28:15;-18373.06;;;5.27;100.00
60583;BME280;46415;47.536;19.066;2023-11-19T14:31:18;-18369.75;;;5.15;100.00
60583;BME280;46415;47.536;19.066;2023-11-19T14:34:20;-18364.00;;;4.94;100.00
60583;BME280;46415;47.536;19.066;2023-11-19T14:37:23;-18357.66;;;4.71;100.00
60583;BME280;46415;47.536;19.066;2023-11-19T14:40:26;-18355.87;;;4.64;100.00
60583;BME280;46415;47.536;19.066;2023-11-19T14:43:32;-18355.87;;;4.64;100.00
60583;BME280;46415;47.536;19.066;2023-11-19T14:46:35;-18353.66;;;4.56;100.00
60583;BME280;46415;47.536;19.066;2023-11-19T14:49:37;-18352.44;;;4.51;100.00
60583;BME280;46415;47.536;19.066;2023-11-19T14:52:40;-18353.94;;;4.57;100.00
60583;BME280;46415;47.536;19.066;2023-11-19T14:55:43;-18352.97;;;4.53;100.00
60583;BME280;46415;47.536;19.066;2023-11-19T14:58:45;-18353.53;;;4.56;100.00
60583;BME280;46415;47.536;19.066;2023-11-19T15:01:48;-18352.44;;;4.51;100.00
60583;BME280;46415;47.536;19.066;2023-11-19T15:04:51;-18352.72;;;4.53;100.00
60583;BME280;46415;47.536;19.066;2023-11-19T15:07:54;-18352.97;;;4.53;100.00
60583;BME280;46415;47.536;19.066;2023-11-19T15:10:58;-18349.13;;;4.39;100.00
60583;BME280;46415;47.536;19.066;2023-11-19T15:14:04;-18347.22;;;4.32;100.00
60583;BME280;46415;47.536;19.066;2023-11-19T15:17:08;-18347.06;;;4.32;100.00
60583;BME280;46415;47.536;19.066;2023-11-19T15:20:11;-18345.28;;;4.25;100.00
60583;BME280;46415;47.536;19.066;2023-11-19T15:23:18;-18344.88;;;4.24;100.00
60583;BME280;46415;47.536;19.066;2023-11-19T15:26:21;-18344.88;;;4.24;100.00
60583;BME280;46415;47.536;19.066;2023-11-19T15:29:24;-18344.47;;;4.22;100.00
60583;BME280;46415;47.536;19.066;2023-11-19T15:32:27;-18345.84;;;4.27;100.00
60583;BME280;46415;47.536;19.066;2023-11-19T15:35:30;-18345.00;;;4.24;100.00
60583;BME280;46415;47.536;19.066;2023-11-19T15:38:35;-18345.00;;;4.24;100.00
60583;BME280;46415;47.536;19.066;2023-11-19T15:41:54;-18343.91;;;4.20;100.00
60583;BME280;46415;47.536;19.066;2023-11-19T15:44:58;-18344.47;;;4.22;100.00
60583;BME280;46415;47.536;19.066;2023-11-19T15:48:00;-18342.81;;;4.16;100.00
60583;BME280;46415;47.536;19.066;2023-11-19T15:51:03;-18345.00;;;4.24;100.00
60583;BME280;46415;47.536;19.066;2023-11-19T15:54:06;-18342.81;;;4.16;100.00
60583;BME280;46415;47.536;19.066;2023-11-19T15:57:10;-18341.44;;;4.11;100.00
60583;BME280;46415;47.536;19.066;2023-11-19T16:00:13;-18343.91;;;4.20;100.00
60583;BME280;46415;47.536;19.066;2023-11-19T16:03:19;-18344.72;;;4.23;100.00
60583;BME280;46415;47.536;19.066;2023-11-19T16:06:22;-18343.78;;;4.20;100.00
60583;BME280;46415;47.536;19.066;2023-11-19T16:09:25;-18343.63;;;4.19;100.00
60583;BME280;46415;47.536;19.066;2023-11-19T16:12:29;-18342.53;;;4.15;100.00
60583;BME280;46415;47.536;19.066;2023-11-19T16:15:34;-18343.34;;;4.18;100.00